Time;durP1;ratioP1;P1;durP2;ratioP2;P2;SDS_P1;SDS_P2;PMS_P1;PMS_P2;Temp;Humidity;BMP_temperature;BMP_pressure;BME280_temperature;BME280_humidity;BME280_pressure;Samples;Min_cycle;Max_cycle;Signal;HPM_P1;HPM_P2
2022/11/29 00:00:39;;;;;;;19.70;11.63;;;;;;;7.71;98.01;101380.97;5134269;27;20031;-64
2022/11/29 00:03:04;;;;;;;23.40;12.73;;;;;;;7.74;98.29;101383.66;5134752;27;20026;-64
2022/11/29 00:05:32;;;;;;;23.80;12.32;;;;;;;7.75;97.99;101384.56;5134209;27;20031;-64
2022/11/29 00:07:57;;;;;;;22.52;12.82;;;;;;;7.72;97.01;101376.59;5134198;27;20035;-64
2022/11/29 00:10:23;;;;;;;26.23;12.75;;;;;;;7.66;97.08;101381.63;5134526;27;20495;-64
2022/11/29 00:12:48;;;;;;;22.17;12.35;;;;;;;7.60;96.46;101379.72;5134210;27;20079;-64
2022/11/29 00:15:14;;;;;;;21.15;11.25;;;;;;;7.55;97.21;101378.69;5134010;27;20024;-64
2022/11/29 00:17:40;;;;;;;22.33;11.70;;;;;;;7.54;97.51;101374.28;5134156;27;20487;-64
2022/11/29 00:20:06;;;;;;;19.35;11.70;;;;;;;7.57;98.24;101378.72;5133978;27;20035;-64
2022/11/29 00:22:31;;;;;;;24.33;12.45;;;;;;;7.61;97.63;101376.25;5134133;27;20027;-64
2022/11/29 00:24:56;;;;;;;20.50;12.80;;;;;;;7.64;97.80;101380.72;5134456;27;20570;-64
2022/11/29 00:27:22;;;;;;;23.08;13.43;;;;;;;7.65;98.04;101382.50;5134043;27;20026;-64
2022/11/29 00:29:47;;;;;;;24.38;13.30;;;;;;;7.65;97.08;101385.13;5134140;27;20099;-64
2022/11/29 00:32:13;;;;;;;24.83;12.57;;;;;;;7.61;97.15;101394.66;5132768;27;20027;-64
2022/11/29 00:34:38;;;;;;;27.67;13.35;;;;;;;7.57;97.08;101386.63;5133752;27;20020;-63
2022/11/29 00:37:04;;;;;;;28.48;13.43;;;;;;;7.54;97.21;101390.06;5134016;27;20024;-64
2022/11/29 00:39:29;;;;;;;28.17;13.73;;;;;;;7.52;97.32;101394.38;5135150;27;20031;-64
2022/11/29 00:41:54;;;;;;;28.10;13.15;;;;;;;7.42;96.85;101379.16;5140672;27;20023;-64
2022/11/29 00:44:20;;;;;;;27.35;12.95;;;;;;;7.42;97.24;101387.03;5140638;27;20023;-64
2022/11/29 00:46:46;;;;;;;24.02;12.65;;;;;;;7.39;97.33;101386.94;5140577;27;20051;-64
2022/11/29 00:49:11;;;;;;;25.40;13.02;;;;;;;7.36;97.19;101387.72;5140703;27;20023;-65
2022/11/29 00:51:37;;;;;;;19.92;12.02;;;;;;;7.38;97.49;101388.66;5140561;27;20070;-64
2022/11/29 00:54:02;;;;;;;26.25;13.65;;;;;;;7.39;97.59;101387.81;5140515;27;20038;-64
2022/11/29 00:56:28;;;;;;;27.33;14.18;;;;;;;7.41;97.74;101388.78;5139195;27;20042;-64
2022/11/29 00:58:54;;;;;;;26.42;12.98;;;;;;;7.41;96.71;101396.66;5140553;27;20059;-64
2022/11/29 01:01:19;;;;;;;20.13;13.77;;;;;;;7.44;97.30;101387.97;5140400;27;20031;-64
2022/11/29 01:03:45;;;;;;;22.20;13.75;;;;;;;7.47;97.95;101391.59;5140514;27;20023;-64
2022/11/29 01:06:13;;;;;;;23.00;14.55;;;;;;;7.49;97.79;101386.38;5140818;27;20023;-64
2022/11/29 01:08:39;;;;;;;29.77;14.18;;;;;;;7.47;97.54;101383.69;5140920;27;20376;-64
2022/11/29 01:11:14;;;;;;;24.42;14.77;;;;;;;7.44;97.67;101387.97;5140472;27;20019;-64
2022/11/29 01:13:40;;;;;;;24.80;14.35;;;;;;;7.44;97.59;101383.59;5140475;27;20019;-63
2022/11/29 01:16:07;;;;;;;21.13;14.25;;;;;;;7.43;98.48;101386.19;5140498;27;20034;-64
2022/11/29 01:18:32;;;;;;;20.88;13.40;;;;;;;7.45;98.35;101389.75;5140476;27;20579;-64
2022/11/29 01:21:06;;;;;;;26.33;14.18;;;;;;;7.44;98.22;101385.34;5140141;27;20080;-64
2022/11/29 01:23:33;;;;;;;25.90;14.32;;;;;;;7.46;98.09;101381.91;5140390;27;20037;-64
2022/11/29 01:26:01;;;;;;;21.08;13.38;;;;;;;7.48;99.24;101393.38;5140450;27;20035;-64
2022/11/29 01:28:27;;;;;;;21.77;13.82;;;;;;;7.48;98.27;101388.09;5140147;27;20031;-64
2022/11/29 01:30:53;;;;;;;20.83;13.63;;;;;;;7.48;98.40;101388.09;5140209;27;20027;-64
2022/11/29 01:33:19;;;;;;;21.23;14.00;;;;;;;7.47;98.42;101383.69;5140121;27;20023;-64
2022/11/29 01:35:52;;;;;;;21.15;13.13;;;;;;;7.49;98.43;101389.91;5140199;27;20072;-63
2022/11/29 01:38:19;;;;;;;21.20;13.88;;;;;;;7.48;97.93;101393.38;5140258;27;20090;-64
2022/11/29 01:40:55;;;;;;;21.55;13.15;;;;;;;7.48;99.04;101385.47;5140275;27;20484;-64
2022/11/29 01:43:20;;;;;;;23.75;13.88;;;;;;;7.55;98.30;101398.84;5140455;27;20054;-64
2022/11/29 01:45:45;;;;;;;19.67;13.40;;;;;;;7.56;98.39;101400.63;5140142;27;20053;-66
2022/11/29 01:48:13;;;;;;;21.17;13.80;;;;;;;7.59;98.41;101408.63;5140361;27;20096;-64
2022/11/29 01:50:40;;;;;;;20.83;13.38;;;;;;;7.57;97.11;101407.66;5139527;27;20054;-64
2022/11/29 01:53:07;;;;;;;20.48;13.63;;;;;;;7.52;96.61;101408.41;5135770;27;20392;-64
2022/11/29 01:55:36;;;;;;;22.48;12.65;;;;;;;7.46;96.64;101408.22;5136680;27;20055;-64
2022/11/29 01:58:03;;;;;;;51.75;12.90;;;;;;;7.37;97.16;101415.81;5136774;27;20039;-64
2022/11/29 02:00:29;;;;;;;34.35;12.98;;;;;;;7.30;97.25;101424.31;5136690;27;20062;-63
2022/11/29 02:03:15;;;;;;;31.08;12.75;;;;;;;7.29;97.50;101427.81;5136531;27;20046;-64
2022/11/29 02:05:43;;;;;;;55.20;12.52;;;;;;;7.26;97.86;101432.94;5136578;27;20027;-63
2022/11/29 02:08:12;;;;;;;51.13;13.45;;;;;;;7.27;97.77;101432.09;5136701;27;20038;-64
2022/11/29 02:11:04;;;;;;;64.07;13.05;;;;;;;7.30;98.31;101441.84;5136460;27;20385;-64
2022/11/29 02:13:46;;;;;;;39.88;12.50;;;;;;;7.26;97.88;101432.94;5136446;27;20063;-64
2022/11/29 02:16:25;;;;;;;36.83;12.57;;;;;;;7.27;98.37;101432.09;5136662;27;20336;-64
2022/11/29 02:19:16;;;;;;;58.97;13.07;;;;;;;7.32;98.28;101433.16;5136355;27;20084;-63
2022/11/29 02:21:58;;;;;;;50.80;12.93;;;;;;;7.38;98.48;101433.38;5136231;27;20384;-64
2022/11/29 02:24:43;;;;;;;45.63;12.63;;;;;;;7.41;98.37;101438.72;5136316;27;20058;-63
2022/11/29 02:27:21;;;;;;;90.30;13.70;;;;;;;7.38;98.20;101440.38;5136208;27;20023;-64
2022/11/29 02:30:07;;;;;;;100.03;14.30;;;;;;;7.32;98.16;101438.41;5136457;27;20035;-64
2022/11/29 02:32:53;;;;;;;33.08;13.05;;;;;;;7.26;99.28;101444.34;5136464;27;20023;-64
2022/11/29 02:35:36;;;;;;;52.78;13.38;;;;;;;7.23;98.46;101446.88;5093688;27;20050;-63
2022/11/29 02:38:38;;;;;;;44.85;13.63;;;;;;;7.23;99.94;101444.25;5135990;27;20048;-64
2022/11/29 02:41:36;;;;;;;39.13;13.55;;;;;;;7.26;98.80;101451.34;5135922;27;20098;-64
2022/11/29 02:44:07;;;;;;;36.30;13.95;;;;;;;7.21;99.85;101452.94;5064106;27;20072;-64
2022/11/29 02:46:44;;;;;;;72.72;14.13;;;;;;;7.18;99.98;101447.56;5135887;27;20023;-64
2022/11/29 02:49:31;;;;;;;27.98;12.93;;;;;;;7.17;100.00;101446.69;5135810;27;20023;-64
2022/11/29 02:52:03;;;;;;;30.23;12.95;;;;;;;7.17;100.00;101444.06;5135521;27;20039;-64
2022/11/29 02:54:55;;;;;;;56.17;13.63;;;;;;;7.16;100.00;101441.38;5135531;27;20080;-64
2022/11/29 02:57:35;;;;;;;33.80;13.70;;;;;;;7.11;100.00;101443.84;5135705;27;20019;-64
2022/11/29 03:00:09;;;;;;;22.15;12.57;;;;;;;7.13;100.00;101449.16;5135791;27;20026;-64
2022/11/29 03:02:37;;;;;;;20.63;13.00;;;;;;;7.16;100.00;101454.53;5135073;27;20027;-64
2022/11/29 03:05:17;;;;;;;28.42;13.98;;;;;;;7.18;100.00;101451.09;5135447;27;20034;-64
2022/11/29 03:07:58;;;;;;;20.48;12.07;;;;;;;7.24;100.00;101453.94;5135429;27;20485;-64
2022/11/29 03:11:00;;;;;;;26.33;13.35;;;;;;;7.23;100.00;101460.00;5135362;27;20098;-64
2022/11/29 03:13:34;;;;;;;25.45;12.30;;;;;;;7.24;99.82;101463.56;5135201;27;20030;-64
2022/11/29 03:16:22;;;;;;;22.38;13.10;;;;;;;7.20;100.00;101467.81;5133918;27;20171;-64
2022/11/29 03:18:50;;;;;;;19.38;12.30;;;;;;;7.20;99.81;101467.81;5135208;27;20039;-64
2022/11/29 03:21:21;;;;;;;20.15;13.10;;;;;;;7.21;99.73;101466.06;5134967;27;20020;-63
2022/11/29 03:23:50;;;;;;;17.60;12.77;;;;;;;7.20;99.25;101473.06;5133745;27;20049;-64
2022/11/29 03:26:24;;;;;;;23.00;13.45;;;;;;;7.21;99.46;101482.75;5135237;27;20084;-63
2022/11/29 03:29:05;;;;;;;22.10;12.38;;;;;;;7.23;99.01;101483.66;5134899;27;20473;-64
2022/11/29 03:31:37;;;;;;;24.20;12.88;;;;;;;7.21;98.36;101484.47;5134968;27;20491;-64
2022/11/29 03:34:37;;;;;;;23.88;11.40;;;;;;;7.21;99.16;101479.22;5134878;27;20116;-64
2022/11/29 03:37:14;;;;;;;45.28;12.20;;;;;;;7.16;98.35;101488.69;5130664;27;20059;-64
2022/11/29 03:39:43;;;;;;;56.35;12.75;;;;;;;7.08;99.08;101498.03;5134757;27;20027;-64
2022/11/29 03:42:36;;;;;;;36.78;12.57;;;;;;;7.05;99.80;101501.44;5134669;27;20047;-63
2022/11/29 03:45:10;;;;;;;43.25;12.63;;;;;;;7.01;98.95;101492.53;5134611;27;20019;-64
2022/11/29 03:47:53;;;;;;;33.30;12.23;;;;;;;7.00;99.31;101505.63;5134652;27;20056;-64
2022/11/29 03:50:22;;;;;;;;;;;;;;;7.00;98.89;101508.25;5134872;27;20031;-64
2022/11/29 03:53:00;;;;;;;35.70;11.52;;;;;;;6.90;99.59;101499.16;5134605;27;19923;-63
2022/11/29 03:55:52;;;;;;;50.88;12.07;;;;;;;6.86;99.71;101502.53;5133223;27;20552;-64
2022/11/29 03:58:54;;;;;;;46.33;11.82;;;;;;;6.88;99.96;101502.56;5134498;27;20049;-63
2022/11/29 04:01:49;;;;;;;20.60;11.50;;;;;;;6.86;99.68;101509.50;5061149;27;20216;-64
2022/11/29 04:05:01;;;;;;;47.15;12.13;;;;;;;6.84;100.00;101514.69;5134318;27;20027;-63
2022/11/29 04:08:04;;;;;;;29.15;12.07;;;;;;;6.86;100.00;101520.91;5134360;27;20027;-64
2022/11/29 04:10:43;;;;;;;38.38;11.45;;;;;;;6.90;100.00;101514.03;5065954;27;20031;-64
2022/11/29 04:13:42;;;;;;;35.22;11.85;;;;;;;6.93;100.00;101517.66;5134280;27;20501;-64
2022/11/29 04:16:16;;;;;;;44.95;11.38;;;;;;;6.92;100.00;101530.72;5133548;27;20046;-64
2022/11/29 04:19:04;;;;;;;64.75;11.95;;;;;;;6.83;99.90;101531.28;5134125;27;20015;-64
2022/11/29 04:21:48;;;;;;;54.63;12.18;;;;;;;6.74;99.69;101523.06;5134010;27;20023;-67
2022/11/29 04:24:55;;;;;;;45.83;11.48;;;;;;;6.69;100.00;101527.28;5134308;27;20031;-63
2022/11/29 04:27:40;;;;;;;62.38;11.60;;;;;;;6.65;100.00;101533.25;5133650;27;20464;-64
2022/11/29 04:30:16;;;;;;;76.78;11.55;;;;;;;6.67;100.00;101526.31;5134289;27;20033;-63
2022/11/29 04:33:21;;;;;;;42.33;11.73;;;;;;;6.75;100.00;101535.38;5134223;27;20023;-64
2022/11/29 04:36:06;;;;;;;51.80;11.63;;;;;;;6.77;100.00;101525.81;5105167;27;20043;-63
2022/11/29 04:38:52;;;;;;;31.73;10.73;;;;;;;6.75;100.00;101527.50;5133880;27;20019;-64
2022/11/29 04:41:36;;;;;;;35.53;10.38;;;;;;;6.77;100.00;101531.97;5133858;27;20045;-63
2022/11/29 04:44:07;;;;;;;60.78;11.38;;;;;;;6.75;100.00;101531.00;5134047;28;20122;-62
2022/11/29 04:46:38;;;;;;;59.75;10.93;;;;;;;6.75;99.83;101545.88;5133784;27;20095;-64
2022/11/29 04:49:25;;;;;;;44.90;10.85;;;;;;;6.73;100.00;101542.31;5133847;28;20034;-65
2022/11/29 04:52:15;;;;;;;35.78;10.10;;;;;;;6.75;100.00;101543.25;5133676;28;20030;-64
2022/11/29 04:54:50;;;;;;;29.60;10.80;;;;;;;6.76;100.00;101543.28;5133560;28;20188;-63
2022/11/29 04:57:40;;;;;;;53.33;11.25;;;;;;;6.75;100.00;101546.75;5132355;28;20027;-64
2022/11/29 05:00:21;;;;;;;43.95;10.68;;;;;;;6.74;100.00;101552.84;5132592;28;20027;-65
2022/11/29 05:02:57;;;;;;;30.63;10.65;;;;;;;6.74;99.83;101550.22;5133715;27;20076;-64
2022/11/29 05:05:31;;;;;;;42.78;11.38;;;;;;;6.76;100.00;101548.53;5133672;27;20051;-64
2022/11/29 05:08:34;;;;;;;64.03;11.43;;;;;;;6.82;99.50;101558.41;5133476;28;20489;-63
2022/11/29 05:11:36;;;;;;;62.95;11.05;;;;;;;6.85;100.00;101569.03;5133689;28;20059;-64
2022/11/29 05:14:23;;;;;;;44.28;10.73;;;;;;;6.85;99.23;101576.91;5133458;27;20030;-63
2022/11/29 05:17:25;;;;;;;23.88;10.55;;;;;;;6.87;100.00;101577.84;5133634;28;20023;-64
2022/11/29 05:20:15;;;;;;;19.95;10.13;;;;;;;6.89;100.00;101578.78;5107301;27;20039;-64
2022/11/29 05:23:03;;;;;;;24.95;10.95;;;;;;;6.91;99.68;101584.13;5133551;28;20023;-63
2022/11/29 05:25:57;;;;;;;26.27;11.10;;;;;;;6.90;99.61;101583.25;5133625;27;20035;-63
2022/11/29 05:28:35;;;;;;;23.75;10.82;;;;;;;6.89;99.58;101589.31;5137013;27;20076;-64
2022/11/29 05:31:03;;;;;;;29.83;11.35;;;;;;;6.88;99.39;101590.16;5137265;27;20484;-63
2022/11/29 05:33:34;;;;;;;27.77;11.27;;;;;;;6.86;99.65;101594.47;5137099;27;20031;-64
2022/11/29 05:36:21;;;;;;;32.65;11.68;;;;;;;6.86;99.05;101596.19;5137134;27;20472;-64
2022/11/29 05:39:12;;;;;;;25.27;10.82;;;;;;;6.80;99.03;101599.47;5137018;27;20027;-64
2022/11/29 05:41:49;;;;;;;22.75;10.75;;;;;;;6.80;99.13;101609.09;5137330;27;20035;-63
2022/11/29 05:44:40;;;;;;;21.55;11.45;;;;;;;6.83;99.66;101610.09;5136960;27;20049;-64
2022/11/29 05:47:09;;;;;;;27.52;11.20;;;;;;;6.86;99.16;101617.22;5137071;27;20460;-64
2022/11/29 05:49:51;;;;;;;21.55;11.23;;;;;;;6.89;99.80;101618.19;5137223;27;20023;-64
2022/11/29 05:52:24;;;;;;;27.42;10.80;;;;;;;6.92;98.46;101620.06;5136798;27;20023;-63
2022/11/29 05:55:08;;;;;;;16.85;10.27;;;;;;;6.97;98.81;101624.66;5136734;27;20059;-63
2022/11/29 05:57:41;;;;;;;20.98;11.95;;;;;;;6.99;99.02;101617.72;5136663;27;20047;-64
2022/11/29 06:00:10;;;;;;;19.65;11.07;;;;;;;6.95;98.17;101617.56;5136789;27;20027;-64
2022/11/29 06:03:02;;;;;;;26.10;11.13;;;;;;;6.96;97.84;101621.97;5136529;27;20376;-64
2022/11/29 06:05:52;;;;;;;16.50;11.15;;;;;;;6.98;98.20;101631.72;5136395;27;20138;-64
2022/11/29 06:08:28;;;;;;;15.45;10.73;;;;;;;7.05;98.67;101630.19;5136589;27;20026;-64
2022/11/29 06:11:14;;;;;;;16.10;11.02;;;;;;;7.11;98.26;101645.28;5136507;27;20059;-64
2022/11/29 06:13:47;;;;;;;17.52;10.90;;;;;;;7.13;98.16;101634.00;5136409;27;20027;-64
2022/11/29 06:16:44;;;;;;;17.70;11.45;;;;;;;7.13;98.07;101636.63;5136416;27;20015;-64
2022/11/29 06:19:37;;;;;;;16.70;10.93;;;;;;;7.10;97.93;101640.88;5136430;27;20027;-63
2022/11/29 06:22:21;;;;;;;;;;;;;;;7.13;97.79;101636.63;5136527;27;20058;-64
2022/11/29 06:25:05;;;;;;;21.83;10.70;;;;;;;7.09;97.52;101652.22;5136498;27;19918;-63
2022/11/29 06:27:39;;;;;;;21.20;11.43;;;;;;;7.07;98.16;101649.56;5136172;27;20480;-64
2022/11/29 06:30:12;;;;;;;24.38;11.32;;;;;;;7.06;98.31;101660.00;5136251;27;20031;-63
2022/11/29 06:33:00;;;;;;;21.08;11.52;;;;;;;7.05;97.85;101664.34;5136438;27;20023;-64
2022/11/29 06:35:34;;;;;;;23.10;12.10;;;;;;;7.02;97.59;101678.28;5136059;27;20061;-63
2022/11/29 06:38:12;;;;;;;21.65;11.98;;;;;;;7.03;98.33;101676.56;5135577;27;20027;-64
2022/11/29 06:40:38;;;;;;;27.70;11.65;;;;;;;6.98;98.25;101672.81;5136088;27;20031;-63
2022/11/29 06:43:03;;;;;;;23.77;11.43;;;;;;;7.07;98.29;101674.94;5135922;27;20106;-64
2022/11/29 06:45:29;;;;;;;26.52;12.73;;;;;;;7.07;97.86;101683.72;5135847;27;20030;-63
2022/11/29 06:48:02;;;;;;;21.08;11.43;;;;;;;7.11;98.12;101683.00;5135807;27;20032;-63
2022/11/29 06:50:34;;;;;;;24.55;11.25;;;;;;;7.11;97.37;101693.53;5135593;27;20035;-63
2022/11/29 06:53:08;;;;;;;31.17;11.65;;;;;;;7.02;97.79;101687.88;5135624;27;20080;-64
2022/11/29 06:55:49;;;;;;;31.02;12.02;;;;;;;6.99;97.98;101693.03;5135293;27;20046;-63
2022/11/29 06:58:53;;;;;;;22.77;11.68;;;;;;;6.98;98.08;101693.84;5135598;27;20034;-63
2022/11/29 07:01:27;;;;;;;25.55;11.93;;;;;;;6.95;98.18;101699.00;5113700;27;20031;-64
2022/11/29 07:04:44;;;;;;;21.65;11.85;;;;;;;6.91;97.72;101703.25;5135520;27;20020;-64
2022/11/29 07:07:19;;;;;;;25.35;12.32;;;;;;;6.83;98.53;101702.03;5111720;27;20034;-64
2022/11/29 07:09:48;;;;;;;27.75;11.93;;;;;;;6.80;98.73;101711.53;5135595;27;20363;-64
2022/11/29 07:12:14;;;;;;;34.35;12.50;;;;;;;6.80;99.03;101711.53;5135431;27;20176;-63
2022/11/29 07:14:40;;;;;;;25.58;12.57;;;;;;;6.85;99.00;101712.59;5135378;27;20035;-63
2022/11/29 07:17:26;;;;;;;33.83;12.30;;;;;;;6.89;99.14;101718.03;5135137;27;20396;-63
2022/11/29 07:20:19;;;;;;;20.63;12.43;;;;;;;6.89;99.12;101720.66;5135350;27;20080;-63
2022/11/29 07:23:08;;;;;;;27.17;13.00;;;;;;;6.85;98.43;101721.41;5135255;27;20053;-63
2022/11/29 07:25:58;;;;;;;29.10;12.57;;;;;;;6.88;99.41;101731.13;5135167;27;20023;-63
2022/11/29 07:28:32;;;;;;;31.77;12.73;;;;;;;6.85;98.41;101725.72;5135019;27;20034;-63
2022/11/29 07:31:07;;;;;;;30.67;12.98;;;;;;;6.87;99.48;101724.09;5134975;27;20034;-63
2022/11/29 07:33:35;;;;;;;29.77;12.73;;;;;;;6.89;99.38;101725.91;5134719;27;20083;-63
2022/11/29 07:36:21;;;;;;;30.08;12.35;;;;;;;6.95;99.04;101735.78;5134891;27;20011;-64
2022/11/29 07:39:06;;;;;;;29.10;12.68;;;;;;;6.95;99.58;101736.69;5134913;27;20029;-63
2022/11/29 07:41:47;;;;;;;29.17;11.88;;;;;;;6.98;98.50;101746.41;5134919;27;20115;-64
2022/11/29 07:44:25;;;;;;;35.95;13.02;;;;;;;6.98;99.49;101749.97;5134816;27;20015;-63
2022/11/29 07:46:51;;;;;;;33.97;13.00;;;;;;;6.95;98.45;101755.06;5134662;27;20037;-63
2022/11/29 07:49:16;;;;;;;27.70;12.48;;;;;;;6.93;99.79;101753.22;5133723;27;20019;-63
2022/11/29 07:51:41;;;;;;;35.17;12.32;;;;;;;6.91;99.25;101755.78;5134206;27;20034;-63
2022/11/29 07:54:09;;;;;;;30.25;13.13;;;;;;;6.92;99.89;101759.31;5134503;27;20058;-64
2022/11/29 07:56:34;;;;;;;25.17;12.80;;;;;;;6.94;99.81;101755.03;5134202;27;20047;-64
2022/11/29 07:59:00;;;;;;;34.95;13.02;;;;;;;6.95;99.91;101754.19;5134511;27;20027;-64
2022/11/29 08:01:25;;;;;;;27.80;12.30;;;;;;;7.00;100.00;101747.38;5134575;27;20106;-62
2022/11/29 08:03:51;;;;;;;29.88;13.20;;;;;;;7.02;100.00;101746.63;5134363;27;20039;-64
2022/11/29 08:06:23;;;;;;;32.28;14.02;;;;;;;7.03;99.80;101748.41;5133159;27;20114;-63
2022/11/29 08:08:48;;;;;;;32.90;13.00;;;;;;;7.06;100.00;101754.59;5134717;27;20034;-64
2022/11/29 08:11:14;;;;;;;33.30;14.18;;;;;;;7.09;99.87;101752.09;5134128;27;20029;-64
2022/11/29 08:13:40;;;;;;;30.55;13.38;;;;;;;7.12;100.00;101755.75;5134373;27;20045;-63
2022/11/29 08:16:07;;;;;;;29.80;13.48;;;;;;;7.15;100.00;101755.88;5134195;27;20027;-63
2022/11/29 08:18:32;;;;;;;29.52;13.70;;;;;;;7.15;99.18;101755.88;5132969;27;20499;-63
2022/11/29 08:20:58;;;;;;;40.28;14.10;;;;;;;7.16;99.63;101760.28;5134078;27;20102;-63
2022/11/29 08:23:23;;;;;;;44.03;13.93;;;;;;;7.13;99.82;101762.78;5133972;27;20062;-66
2022/11/29 08:25:48;;;;;;;42.55;13.82;;;;;;;7.10;100.00;101761.75;5134055;27;20023;-64
2022/11/29 08:28:14;;;;;;;35.00;13.32;;;;;;;7.14;100.00;101771.56;5133968;27;20499;-63
2022/11/29 08:30:39;;;;;;;34.53;13.55;;;;;;;7.15;100.00;101769.03;5134246;27;20027;-63
2022/11/29 08:33:05;;;;;;;32.40;14.23;;;;;;;7.20;100.00;101766.56;5133819;27;20444;-63
2022/11/29 08:35:34;;;;;;;36.10;14.55;;;;;;;7.20;100.00;101774.44;5133798;27;20023;-63
2022/11/29 08:37:59;;;;;;;33.45;13.63;;;;;;;7.20;100.00;101771.81;5133904;27;20015;-64
2022/11/29 08:40:25;;;;;;;40.15;14.38;;;;;;;7.18;100.00;101778.75;5133914;28;20038;-65
2022/11/29 08:42:50;;;;;;;38.60;14.35;;;;;;;7.14;100.00;101776.81;5133802;28;20027;-64
2022/11/29 08:45:16;;;;;;;50.20;14.60;;;;;;;7.12;100.00;101784.66;5133762;28;20058;-64
2022/11/29 08:47:41;;;;;;;50.28;14.80;;;;;;;7.10;100.00;101785.41;5133568;28;20024;-64
2022/11/29 08:50:11;;;;;;;49.28;14.50;;;;;;;7.06;100.00;101787.03;5133571;28;20100;-64
2022/11/29 08:55:27;;;;;;;43.92;14.98;;;;;;;7.10;100.00;101788.03;5133463;28;20054;-63
2022/11/29 08:57:58;;;;;;;37.95;14.50;;;;;;;7.17;100.00;101803.22;5133544;27;20031;-65
2022/11/29 09:00:24;;;;;;;33.75;14.15;;;;;;;7.22;100.00;101799.94;5133748;27;20027;-63
2022/11/29 09:02:49;;;;;;;48.53;14.82;;;;;;;7.26;100.00;101800.97;5137700;27;20034;-63
2022/11/29 09:05:15;;;;;;;45.33;15.23;;;;;;;7.28;100.00;101796.69;5137726;27;20027;-63
2022/11/29 09:07:40;;;;;;;43.75;14.82;;;;;;;7.30;100.00;101805.50;5137954;27;20141;-63
2022/11/29 09:10:07;;;;;;;45.95;15.65;;;;;;;7.32;100.00;101806.44;5137734;27;20039;-64
2022/11/29 09:12:37;;;;;;;39.88;15.60;;;;;;;7.32;100.00;101801.19;5137691;27;20048;-64
2022/11/29 09:15:05;;;;;;;55.80;16.15;;;;;;;7.33;100.00;101805.66;5136670;27;20031;-63
2022/11/29 09:17:30;;;;;;;48.97;15.25;;;;;;;7.35;100.00;101809.22;5137948;27;20032;-63
2022/11/29 09:19:55;;;;;;;51.90;15.75;;;;;;;7.42;100.00;101807.72;5137644;27;20041;-63
2022/11/29 09:22:21;;;;;;;41.42;15.57;;;;;;;7.45;100.00;101811.38;5137055;27;20062;-63
2022/11/29 09:24:46;;;;;;;43.08;15.90;;;;;;;7.49;100.00;101812.38;5137615;27;20042;-63
2022/11/29 09:27:12;;;;;;;63.40;16.40;;;;;;;7.52;100.00;101817.75;5137282;27;20451;-63
2022/11/29 09:29:37;;;;;;;56.72;16.58;;;;;;;7.54;100.00;101816.09;5136100;27;20024;-64
2022/11/29 09:32:03;;;;;;;52.63;16.42;;;;;;;7.57;100.00;101818.81;5137151;27;20036;-64
2022/11/29 09:34:28;;;;;;;50.95;16.45;;;;;;;7.61;100.00;101827.75;5137185;27;20027;-64
2022/11/29 09:36:54;;;;;;;41.65;16.38;;;;;;;7.64;100.00;101826.13;5137132;27;20118;-66
2022/11/29 09:39:19;;;;;;;40.35;16.25;;;;;;;7.67;100.00;101826.25;5137355;27;20146;-65
2022/11/29 09:42:11;;;;;;;39.05;15.90;;;;;;;7.70;100.00;101830.72;5137374;27;20090;-64
2022/11/29 09:44:53;;;;;;;43.83;17.55;;;;;;;7.78;100.00;101839.78;5137163;27;20034;-64
2022/11/29 09:47:56;;;;;;;47.13;16.73;;;;;;;7.85;100.00;101844.47;5137128;27;20035;-64
2022/11/29 09:50:24;;;;;;;39.45;16.70;;;;;;;7.89;100.00;101851.63;5136924;27;20027;-65
2022/11/29 09:53:34;;;;;;;53.65;16.73;;;;;;;7.92;100.00;101842.94;5136652;27;20499;-63
2022/11/29 09:56:24;;;;;;;41.35;16.85;;;;;;;7.94;100.00;101847.44;5114973;27;20051;-64
2022/11/29 09:59:00;;;;;;;41.28;16.80;;;;;;;7.91;100.00;101856.94;5136821;27;20034;-64
2022/11/29 10:01:33;;;;;;;38.33;16.75;;;;;;;7.86;100.00;101850.63;5136760;27;20027;-64
2022/11/29 10:04:07;;;;;;;42.35;16.20;;;;;;;7.87;100.00;101855.03;5137051;27;20030;-64
2022/11/29 10:06:44;;;;;;;48.75;16.33;;;;;;;7.88;100.00;101860.38;5136674;27;20483;-63
2022/11/29 10:09:23;;;;;;;38.97;16.60;;;;;;;7.92;100.00;101858.72;5136523;27;20109;-63
2022/11/29 10:12:12;;;;;;;42.60;16.83;;;;;;;7.95;100.00;101854.50;5136212;27;20019;-64
2022/11/29 10:14:59;;;;;;;36.65;15.40;;;;;;;8.03;100.00;101854.78;5097426;27;20039;-64
2022/11/29 10:17:39;;;;;;;48.53;16.92;;;;;;;8.07;100.00;101856.69;5136295;27;20053;-63
2022/11/29 10:20:15;;;;;;;43.38;16.23;;;;;;;8.11;100.00;101857.72;5136311;27;20080;-63
2022/11/29 10:22:53;;;;;;;36.58;13.63;;;;;;;8.12;100.00;101854.22;5136254;27;20102;-64
2022/11/29 10:25:30;;;;;;;40.67;13.98;;;;;;;8.12;100.00;101851.59;5136160;27;20035;-63
2022/11/29 10:27:56;;;;;;;32.67;13.75;;;;;;;8.16;100.00;101850.88;5136107;27;20019;-64
2022/11/29 10:30:22;;;;;;;36.88;14.60;;;;;;;8.18;100.00;101847.47;5136025;27;20033;-64
2022/11/29 10:32:56;;;;;;;39.08;14.23;;;;;;;8.22;100.00;101844.09;5135998;27;20081;-63
2022/11/29 10:35:22;;;;;;;39.50;13.48;;;;;;;8.24;100.00;101838.88;5136251;27;20051;-64
2022/11/29 10:37:51;;;;;;;32.97;14.27;;;;;;;8.31;100.00;101847.88;5136095;27;20393;-64
2022/11/29 10:40:21;;;;;;;33.15;13.93;;;;;;;8.25;100.00;101838.91;5134641;27;20072;-64
2022/11/29 10:42:53;;;;;;;37.85;14.25;;;;;;;8.34;100.00;101834.84;5135932;27;20023;-65
2022/11/29 10:45:21;;;;;;;32.25;13.80;;;;;;;8.37;100.00;101834.97;5135861;27;20464;-64
2022/11/29 10:47:48;;;;;;;31.85;13.95;;;;;;;8.39;100.00;101841.19;5135870;27;20414;-64
2022/11/29 10:50:26;;;;;;;28.88;12.45;;;;;;;8.44;100.00;101850.19;5135791;27;20019;-64
2022/11/29 10:52:59;;;;;;;31.67;13.93;;;;;;;8.43;100.00;101849.25;5135817;27;20084;-63
2022/11/29 10:55:30;;;;;;;34.78;14.57;;;;;;;8.45;100.00;101854.59;5134714;27;20500;-64
2022/11/29 10:58:23;;;;;;;27.70;11.85;;;;;;;8.49;100.00;101857.38;5135881;27;20035;-64
2022/11/29 11:00:58;;;;;;;32.75;12.55;;;;;;;8.46;100.00;101853.75;5135889;27;20039;-64
2022/11/29 11:03:35;;;;;;;32.05;12.95;;;;;;;8.45;100.00;101858.13;5135534;27;20023;-64
2022/11/29 11:06:38;;;;;;;30.40;12.38;;;;;;;8.45;100.00;101850.22;5135391;27;20079;-64
2022/11/29 11:09:22;;;;;;;;;;;;;;;8.55;100.00;101856.69;5072527;28;20501;-64
2022/11/29 11:11:52;;;;;;;30.75;12.20;;;;;;;8.51;100.00;101862.69;5129919;27;20398;-63
2022/11/29 11:14:28;;;;;;;30.08;12.85;;;;;;;8.48;100.00;101854.72;5135204;27;20023;-63
2022/11/29 11:16:53;;;;;;;33.70;12.68;;;;;;;8.47;100.00;101855.53;5135578;27;20035;-64
2022/11/29 11:19:30;;;;;;;32.20;13.07;;;;;;;8.45;100.00;101850.22;5134209;27;20023;-64
2022/11/29 11:21:58;;;;;;;36.85;13.27;;;;;;;8.41;100.00;101860.59;5134963;27;20023;-64
2022/11/29 11:24:32;;;;;;;33.13;13.77;;;;;;;8.35;100.00;101849.78;5134840;27;20028;-64
2022/11/29 11:26:59;;;;;;;42.90;14.35;;;;;;;8.34;100.00;101853.25;5135065;27;20045;-64
2022/11/29 11:29:39;;;;;;;34.72;13.68;;;;;;;8.34;100.00;101856.78;5134991;27;20019;-64
2022/11/29 11:32:17;;;;;;;38.33;13.85;;;;;;;8.33;100.00;101849.75;5133726;27;20023;-63
2022/11/29 11:34:57;;;;;;;32.58;15.13;;;;;;;8.36;100.00;101862.13;5134945;27;20030;-63
2022/11/29 11:37:31;;;;;;;33.17;14.60;;;;;;;8.36;100.00;101856.88;5134939;27;20058;-64
2022/11/29 11:39:59;;;;;;;35.85;13.93;;;;;;;8.39;100.00;101870.16;5133584;27;20034;-63
2022/11/29 11:42:37;;;;;;;30.45;14.63;;;;;;;8.43;100.00;101870.31;5134769;27;20131;-63
2022/11/29 11:45:08;;;;;;;32.15;14.68;;;;;;;8.41;100.00;101872.00;5134809;27;20043;-63
2022/11/29 11:47:36;;;;;;;31.33;14.88;;;;;;;8.39;100.00;101871.03;5134656;27;20048;-64
2022/11/29 11:50:05;;;;;;;32.40;14.90;;;;;;;8.39;100.00;101872.78;5134593;27;20054;-63
2022/11/29 11:52:52;;;;;;;33.67;15.02;;;;;;;8.43;100.00;101887.84;5134695;27;20031;-63
2022/11/29 11:55:20;;;;;;;30.80;14.90;;;;;;;8.41;100.00;101879.91;5134215;27;20079;-63